createdAt,value
2022-08-11T01:46:28.154Z,18.74
2022-08-11T01:50:06.854Z,18.48
2022-08-11T01:52:36.295Z,18.35
2022-08-11T02:03:58.998Z,18.05
2022-08-11T02:07:16.116Z,18.01
2022-08-11T02:10:25.750Z,18.00
2022-08-11T02:13:16.075Z,17.91
2022-08-11T02:15:59.395Z,17.95
2022-08-11T02:18:49.675Z,17.88
2022-08-11T02:21:59.635Z,17.70
2022-08-11T02:24:38.246Z,17.72
2022-08-11T02:27:19.645Z,17.61
2022-08-11T02:30:05.344Z,17.59
2022-08-11T02:32:54.807Z,17.59
2022-08-11T02:37:04.127Z,17.48
2022-08-11T02:40:26.019Z,17.41
2022-08-11T02:43:10.526Z,17.42
2022-08-11T02:45:54.986Z,17.35
2022-08-11T02:48:54.187Z,17.34
2022-08-11T02:51:39.007Z,17.41
2022-08-11T02:54:24.335Z,17.22
2022-08-11T02:57:05.597Z,17.18
2022-08-11T02:59:53.896Z,17.32
2022-08-11T03:03:03.095Z,17.38
2022-08-11T03:05:55.946Z,17.32
2022-08-11T03:08:51.571Z,17.36
2022-08-11T03:11:48.827Z,17.21
2022-08-11T03:14:42.895Z,17.42
2022-08-11T03:17:29.095Z,17.35
2022-08-11T03:20:18.627Z,17.24
2022-08-11T03:22:58.527Z,17.60
2022-08-11T03:25:38.064Z,17.82
2022-08-11T03:28:24.929Z,17.99
2022-08-11T03:31:11.937Z,18.14
2022-08-11T03:34:07.542Z,18.03
2022-08-11T03:37:36.973Z,18.16
2022-08-11T03:40:43.695Z,18.15
2022-08-11T03:43:30.097Z,18.37
2022-08-11T03:46:11.947Z,18.44
2022-08-11T03:48:52.468Z,18.56
2022-08-11T03:51:44.553Z,18.73
2022-08-11T03:54:33.139Z,18.49
2022-08-11T03:57:48.826Z,18.31
2022-08-11T04:01:02.585Z,18.30
2022-08-11T04:04:12.538Z,18.58
2022-08-11T04:07:23.197Z,18.81
2022-08-11T04:10:25.000Z,18.73
2022-08-11T04:13:22.163Z,18.70
2022-08-11T04:16:11.501Z,18.68
2022-08-11T04:19:15.999Z,18.79
2022-08-11T04:22:30.261Z,18.98
2022-08-11T04:25:15.241Z,18.88
2022-08-11T04:28:28.454Z,19.04
2022-08-11T04:31:50.517Z,19.10
2022-08-11T04:34:47.461Z,19.23
2022-08-11T04:37:53.727Z,19.19
2022-08-11T04:40:53.130Z,19.23
2022-08-11T04:44:05.744Z,19.12
2022-08-11T04:47:00.850Z,19.37
2022-08-11T04:50:14.019Z,19.40
2022-08-11T04:53:29.005Z,19.28
2022-08-11T04:56:32.310Z,19.42
2022-08-11T04:59:52.211Z,19.45
2022-08-11T05:03:00.649Z,19.52
2022-08-11T05:05:54.644Z,19.50
2022-08-11T05:08:57.753Z,19.78
2022-08-11T05:11:57.959Z,19.66
2022-08-11T05:14:50.382Z,19.77
2022-08-11T05:17:46.745Z,19.85
2022-08-11T05:20:31.850Z,20.06
2022-08-11T05:23:27.734Z,19.89
2022-08-11T05:26:47.077Z,19.94
2022-08-11T05:29:37.440Z,20.09
2022-08-11T05:32:23.582Z,20.21
2022-08-11T05:34:58.009Z,20.24
2022-08-11T05:37:40.874Z,20.38
2022-08-11T05:40:30.103Z,20.44
2022-08-11T05:43:18.879Z,20.50
2022-08-11T05:46:14.452Z,20.54
2022-08-11T05:48:59.590Z,20.73
2022-08-11T05:51:54.885Z,20.99
2022-08-11T05:54:46.166Z,21.06
2022-08-11T05:57:49.510Z,21.32
2022-08-11T06:00:24.511Z,22.21
2022-08-11T06:03:01.526Z,23.23
2022-08-11T06:05:43.977Z,23.97
2022-08-11T06:08:17.953Z,24.63
2022-08-11T06:10:51.281Z,24.49
2022-08-11T06:13:47.121Z,26.06
2022-08-11T06:16:26.501Z,26.10
2022-08-11T06:18:59.073Z,26.93
2022-08-11T06:21:32.152Z,27.07
2022-08-11T06:24:04.744Z,27.39
2022-08-11T06:26:55.158Z,27.58
2022-08-11T06:29:37.877Z,28.05
2022-08-11T06:32:20.980Z,27.89
2022-08-11T06:35:15.519Z,27.82
2022-08-11T06:38:05.811Z,27.58
2022-08-11T06:41:05.511Z,28.18
2022-08-11T06:43:55.655Z,28.17
2022-08-11T06:46:39.198Z,28.81
2022-08-11T06:49:33.511Z,29.20
2022-08-11T06:52:05.691Z,29.31
2022-08-11T06:54:44.611Z,29.73
2022-08-11T06:57:31.064Z,30.25
2022-08-11T07:00:17.373Z,30.63
2022-08-11T07:02:56.811Z,30.39
2022-08-11T07:05:44.472Z,30.81
2022-08-11T07:09:11.411Z,30.73
2022-08-11T07:12:20.511Z,30.95
2022-08-11T07:15:08.071Z,31.45
2022-08-11T07:17:49.776Z,31.77
2022-08-11T07:20:37.321Z,31.45
2022-08-11T07:23:25.889Z,31.63
2022-08-11T07:26:14.010Z,32.11
2022-08-11T07:29:00.431Z,32.00
2022-08-11T07:31:41.131Z,32.46
2022-08-11T07:34:23.649Z,31.95
2022-08-11T07:37:01.572Z,32.08
2022-08-11T07:39:40.264Z,32.61
2022-08-11T07:42:15.332Z,33.00
2022-08-11T07:45:02.831Z,33.08
2022-08-11T07:47:53.372Z,33.03
2022-08-11T07:50:39.111Z,33.27
2022-08-11T07:53:16.611Z,33.24
2022-08-11T07:55:53.514Z,33.49
2022-08-11T07:58:44.991Z,33.55
2022-08-11T08:01:36.800Z,34.08
2022-08-11T08:04:23.160Z,33.97
2022-08-11T08:07:08.497Z,34.57
2022-08-11T08:09:56.355Z,34.60
2022-08-11T08:12:41.896Z,34.13
2022-08-11T08:15:28.439Z,34.09
2022-08-11T08:18:20.921Z,34.36
2022-08-11T08:20:55.558Z,33.50
2022-08-11T08:23:36.358Z,33.12
2022-08-11T08:26:33.276Z,34.15
2022-08-11T08:29:21.755Z,32.95
2022-08-11T08:31:54.196Z,33.53
2022-08-11T08:34:27.337Z,34.24
2022-08-11T08:37:15.920Z,34.39
2022-08-11T08:39:58.943Z,34.57
2022-08-11T08:42:37.480Z,34.85
2022-08-11T08:45:16.144Z,34.62
2022-08-11T08:47:56.238Z,34.35
2022-08-11T08:50:46.815Z,34.70
2022-08-11T08:53:27.177Z,34.67
2022-08-11T08:56:01.881Z,34.91
2022-08-11T08:58:41.707Z,35.28
2022-08-11T09:01:17.410Z,35.14
2022-08-11T09:04:07.297Z,35.21
2022-08-11T09:06:43.663Z,34.95
2022-08-11T09:09:22.939Z,35.42
2022-08-11T09:11:56.637Z,35.47
2022-08-11T09:14:50.818Z,35.69
2022-08-11T09:17:25.125Z,34.64
2022-08-11T09:20:01.544Z,35.25
2022-08-11T09:22:57.424Z,35.26
2022-08-11T09:25:53.477Z,35.44
2022-08-11T09:28:29.037Z,36.14
2022-08-11T09:31:05.898Z,36.16
2022-08-11T09:33:39.417Z,34.92
2022-08-11T09:36:34.039Z,35.30
2022-08-11T09:39:27.423Z,33.82
2022-08-11T09:42:02.839Z,33.94
2022-08-11T09:44:50.947Z,35.60
2022-08-11T09:47:29.110Z,35.40
2022-08-11T09:50:04.215Z,35.50
2022-08-11T09:52:57.209Z,35.72
2022-08-11T09:55:33.911Z,35.58
2022-08-11T09:58:41.791Z,35.46
2022-08-11T10:01:27.754Z,35.38
2022-08-11T10:04:07.196Z,34.98
2022-08-11T10:06:55.416Z,34.86
2022-08-11T10:09:30.177Z,34.20
2022-08-11T10:12:05.257Z,34.20
2022-08-11T10:14:53.257Z,34.90
2022-08-11T10:17:27.819Z,34.55
2022-08-11T10:20:08.136Z,33.61
2022-08-11T10:22:53.377Z,34.72
2022-08-11T10:25:38.617Z,34.06
2022-08-11T10:28:28.266Z,33.56
2022-08-11T10:31:19.596Z,34.83
2022-08-11T10:34:06.617Z,35.13
2022-08-11T10:37:15.135Z,34.43
2022-08-11T10:39:49.809Z,34.15
2022-08-11T10:42:57.345Z,33.78
2022-08-11T10:45:45.091Z,34.12
2022-08-11T10:48:18.673Z,34.78
2022-08-11T10:51:05.111Z,34.97
2022-08-11T10:53:56.009Z,32.50
2022-08-11T10:56:43.251Z,33.39
2022-08-11T10:59:16.791Z,33.25
2022-08-11T11:01:50.153Z,33.70
2022-08-11T11:04:27.643Z,34.13
2022-08-11T11:07:06.991Z,33.73
2022-08-11T11:09:48.166Z,33.33
2022-08-11T11:12:43.371Z,33.75
2022-08-11T11:15:31.070Z,34.05
2022-08-11T11:18:09.671Z,33.35
2022-08-11T11:20:47.732Z,33.49
2022-08-11T11:23:26.790Z,33.81
2022-08-11T11:26:31.025Z,33.56
2022-08-11T11:29:25.579Z,33.23
2022-08-11T11:32:19.885Z,33.46
2022-08-11T11:35:13.363Z,32.80
2022-08-11T11:38:00.047Z,32.75
2022-08-11T11:40:40.666Z,31.04
2022-08-11T11:43:16.090Z,30.85
2022-08-11T11:45:48.845Z,32.00
2022-08-11T11:48:21.310Z,32.48
2022-08-11T11:50:58.455Z,32.82
2022-08-11T11:53:31.346Z,32.56
2022-08-11T11:56:04.555Z,32.29
2022-08-11T11:58:53.247Z,32.31
2022-08-11T12:01:27.070Z,32.14
2022-08-11T12:04:01.981Z,32.25
2022-08-11T12:06:37.687Z,31.29
2022-08-11T12:09:10.307Z,31.31
2022-08-11T12:11:55.046Z,30.87
2022-08-11T12:14:30.829Z,30.67
2022-08-11T12:17:04.067Z,30.46
2022-08-11T12:19:36.447Z,30.71
2022-08-11T12:22:22.325Z,30.62
2022-08-11T12:25:07.062Z,29.77
2022-08-11T12:27:41.057Z,29.96
2022-08-11T12:30:17.227Z,30.03
2022-08-11T12:32:49.947Z,30.32
2022-08-11T12:35:22.374Z,30.45
2022-08-11T12:38:04.905Z,30.65
2022-08-11T12:44:02.809Z,30.70
2022-08-11T12:46:40.576Z,30.47
2022-08-11T12:49:29.154Z,30.95
2022-08-11T12:52:14.580Z,30.88
2022-08-11T12:55:00.730Z,30.36
2022-08-11T12:57:50.271Z,30.50
2022-08-11T13:00:43.772Z,30.39
2022-08-11T13:03:34.199Z,30.16
2022-08-11T13:06:08.423Z,29.93
2022-08-11T13:08:43.649Z,29.87
2022-08-11T13:11:55.871Z,29.64
2022-08-11T13:14:24.141Z,29.90
2022-08-11T13:17:09.588Z,29.99
2022-08-11T13:19:49.748Z,29.66
2022-08-11T13:22:26.242Z,29.71
2022-08-11T13:25:01.101Z,29.75
2022-08-11T13:27:34.422Z,29.81
2022-08-11T13:30:19.405Z,29.75
2022-08-11T13:32:56.166Z,29.88
2022-08-11T13:35:33.630Z,30.19
2022-08-11T13:38:17.255Z,29.96
2022-08-11T13:40:56.207Z,29.96
2022-08-11T13:43:30.036Z,30.09
2022-08-11T13:46:14.556Z,30.21
2022-08-11T13:48:47.614Z,30.10
2022-08-11T13:51:36.536Z,29.88
2022-08-11T13:54:12.316Z,29.66
2022-08-11T13:56:48.854Z,29.63
2022-08-11T13:59:24.014Z,29.70
2022-08-11T14:02:22.471Z,29.73
2022-08-11T14:05:00.492Z,29.45
2022-08-11T14:07:41.047Z,29.47
2022-08-11T14:10:16.731Z,29.39
2022-08-11T14:13:18.910Z,29.54
2022-08-11T14:15:53.888Z,29.69
2022-08-11T14:18:32.408Z,30.01
2022-08-11T14:21:20.430Z,30.04
2022-08-11T14:24:01.448Z,29.80
2022-08-11T14:26:39.148Z,29.87
2022-08-11T14:29:17.382Z,29.78
2022-08-11T14:31:53.169Z,29.90
2022-08-11T14:34:30.362Z,29.84
2022-08-11T14:37:06.256Z,29.86
2022-08-11T14:39:46.737Z,29.84
2022-08-11T14:42:33.854Z,29.86
2022-08-11T14:45:54.267Z,29.78
2022-08-11T14:48:22.234Z,29.81
2022-08-11T14:50:54.992Z,29.70
2022-08-11T14:53:28.334Z,29.68
2022-08-11T14:56:16.171Z,29.49
2022-08-11T14:58:48.977Z,29.45
2022-08-11T15:01:33.349Z,29.78
2022-08-11T15:04:35.881Z,29.91
2022-08-11T15:06:58.525Z,29.77
2022-08-11T15:09:31.550Z,29.72
2022-08-11T15:12:32.552Z,29.62
2022-08-11T15:15:20.528Z,29.60
2022-08-11T15:17:55.039Z,29.86
2022-08-11T15:20:43.187Z,29.70
2022-08-11T15:23:28.168Z,29.47
2022-08-11T15:26:04.148Z,29.55
2022-08-11T15:28:58.169Z,29.44
2022-08-11T15:31:49.238Z,29.58
2022-08-11T15:34:37.786Z,29.37
2022-08-11T15:37:25.473Z,29.46
2022-08-11T15:40:30.069Z,29.58
2022-08-11T15:43:28.429Z,29.69
2022-08-11T15:46:20.007Z,29.44
2022-08-11T15:48:59.736Z,29.36
2022-08-11T15:51:39.312Z,29.19
2022-08-11T15:54:15.932Z,29.27
2022-08-11T15:56:51.722Z,29.54
2022-08-11T15:59:42.581Z,29.58
2022-08-11T16:02:36.515Z,29.47
2022-08-11T16:05:44.994Z,29.45
2022-08-11T16:08:11.566Z,29.41
2022-08-11T16:10:48.677Z,29.47
2022-08-11T16:13:37.714Z,29.41
2022-08-11T16:16:19.995Z,29.47
2022-08-11T16:19:02.030Z,29.36
2022-08-11T16:21:40.615Z,29.54
2022-08-11T16:27:05.194Z,29.36
2022-08-11T16:27:13.978Z,29.21
2022-08-11T16:29:49.450Z,29.22
2022-08-11T16:32:26.111Z,29.33
2022-08-11T16:35:17.093Z,29.26
2022-08-11T16:38:03.851Z,29.38
2022-08-11T16:40:38.031Z,29.41
2022-08-11T16:43:27.732Z,29.39
2022-08-11T16:46:14.333Z,29.35
2022-08-11T16:48:53.210Z,29.13
2022-08-11T16:51:28.512Z,29.11
2022-08-11T16:54:05.719Z,29.16
2022-08-11T16:56:42.390Z,29.32
2022-08-11T16:59:20.833Z,29.23
2022-08-11T17:01:56.911Z,29.11
2022-08-11T17:04:51.951Z,29.14
2022-08-11T17:07:43.172Z,29.09
2022-08-11T17:10:51.924Z,29.02
2022-08-11T17:13:35.154Z,28.88
2022-08-11T17:16:13.057Z,28.98
2022-08-11T17:18:54.912Z,28.72
2022-08-11T17:21:31.270Z,28.56
2022-08-11T17:24:09.274Z,28.59
2022-08-11T17:26:58.972Z,28.29
2022-08-11T17:29:55.737Z,28.41
2022-08-11T17:32:55.996Z,28.27
2022-08-11T17:35:39.049Z,28.42
2022-08-11T17:38:15.934Z,28.32
2022-08-11T17:44:44.199Z,28.29
2022-08-11T17:47:44.970Z,28.28
2022-08-11T17:50:18.553Z,28.26
2022-08-11T17:53:04.371Z,28.30
2022-08-11T17:55:53.393Z,28.03
2022-08-11T17:58:43.219Z,27.85
2022-08-11T18:01:17.852Z,27.70
2022-08-11T18:03:57.971Z,27.69
2022-08-11T18:06:34.912Z,27.82
2022-08-11T18:09:23.419Z,27.67
2022-08-11T18:12:12.760Z,27.58
2022-08-11T18:15:04.211Z,27.63
2022-08-11T18:17:50.123Z,27.53
2022-08-11T18:20:35.632Z,27.48
2022-08-11T18:23:40.701Z,27.40
2022-08-11T18:26:31.331Z,27.43
2022-08-11T18:29:17.225Z,27.37
2022-08-11T18:32:08.293Z,27.26
2022-08-11T18:34:57.551Z,27.25
2022-08-11T18:37:46.314Z,27.22
2022-08-11T18:40:36.231Z,27.07
2022-08-11T18:43:27.355Z,26.97
2022-08-11T18:46:20.453Z,27.01
2022-08-11T18:49:15.604Z,26.98
2022-08-11T18:52:05.994Z,26.92
2022-08-11T18:54:53.445Z,26.88
2022-08-11T18:57:49.826Z,27.02
2022-08-11T19:00:40.920Z,26.70
2022-08-11T19:03:27.634Z,26.62
2022-08-11T19:06:38.778Z,26.61
2022-08-11T19:09:30.301Z,26.62
2022-08-11T19:12:16.094Z,26.62
2022-08-11T19:15:01.319Z,26.59
2022-08-11T19:17:46.849Z,26.47
2022-08-11T19:21:20.196Z,26.42
2022-08-11T19:24:39.495Z,26.40
2022-08-11T19:31:32.948Z,26.27
2022-08-11T19:39:01.439Z,26.16
2022-08-11T19:42:01.343Z,26.31
2022-08-11T19:44:46.520Z,26.23
2022-08-11T19:47:34.128Z,26.06
2022-08-11T19:50:24.335Z,25.95
2022-08-11T19:53:17.301Z,25.67
2022-08-11T19:56:04.020Z,25.42
2022-08-11T19:58:53.480Z,25.36
2022-08-11T20:01:38.440Z,25.28
2022-08-11T20:04:43.479Z,25.11
2022-08-11T20:07:31.923Z,24.99
2022-08-11T20:10:21.540Z,24.85
2022-08-11T20:13:08.422Z,24.58
2022-08-11T20:15:57.381Z,24.44
2022-08-11T20:18:43.882Z,24.22
2022-08-11T20:21:32.698Z,24.12
2022-08-11T20:24:19.282Z,24.01
2022-08-11T20:27:05.461Z,23.94
2022-08-11T20:29:52.140Z,23.77
2022-08-11T20:32:40.081Z,23.66
2022-08-11T20:35:25.981Z,23.61
2022-08-11T20:38:13.734Z,23.51
2022-08-11T20:40:59.860Z,23.45
2022-08-11T20:44:06.644Z,23.61
2022-08-11T20:46:54.122Z,23.76
2022-08-11T20:52:51.601Z,23.97
2022-08-11T20:55:51.550Z,23.95
2022-08-11T20:59:04.064Z,23.99
2022-08-11T21:01:44.215Z,24.19
2022-08-11T21:04:29.261Z,24.07
2022-08-11T21:07:28.110Z,24.22
2022-08-11T21:10:23.156Z,24.26
2022-08-11T21:13:25.476Z,24.23
2022-08-11T21:16:26.470Z,24.13
2022-08-11T21:20:01.342Z,24.21
2022-08-11T21:22:34.200Z,24.30
2022-08-11T21:25:26.639Z,24.33
2022-08-11T21:28:19.283Z,24.27
2022-08-11T21:31:05.780Z,24.11
2022-08-11T21:33:50.970Z,23.99
2022-08-11T21:36:37.462Z,24.01
2022-08-11T21:39:28.912Z,23.92
2022-08-11T21:42:14.881Z,23.85
2022-08-11T21:45:00.441Z,23.73
2022-08-11T21:47:46.826Z,23.71
2022-08-11T21:50:31.421Z,23.54
2022-08-11T21:53:16.705Z,23.56
2022-08-11T21:56:05.541Z,23.60
2022-08-11T21:58:51.240Z,23.54
2022-08-11T22:01:37.633Z,23.54
2022-08-11T22:04:23.139Z,23.51
2022-08-11T22:07:07.887Z,23.54
2022-08-11T22:09:53.140Z,23.60
2022-08-11T22:12:44.652Z,23.46
2022-08-11T22:15:30.482Z,23.38
2022-08-11T22:18:16.776Z,23.34
2022-08-11T22:21:02.388Z,23.32
2022-08-11T22:23:52.269Z,23.42
2022-08-11T22:26:39.605Z,23.28
2022-08-11T22:29:50.041Z,23.29
2022-08-11T22:32:35.246Z,23.35
2022-08-11T22:35:21.060Z,23.07
2022-08-11T22:38:06.253Z,23.23
2022-08-11T22:40:51.802Z,23.11
2022-08-11T22:43:36.500Z,23.21
2022-08-11T22:46:23.983Z,23.11
2022-08-11T22:49:09.788Z,23.07
2022-08-11T22:51:56.902Z,23.01
2022-08-11T22:54:43.201Z,22.93
2022-08-11T22:57:30.241Z,22.96
2022-08-11T23:00:16.542Z,23.00
2022-08-11T23:03:04.522Z,22.88
2022-08-11T23:05:51.482Z,22.84
2022-08-11T23:08:36.822Z,22.78
2022-08-11T23:11:22.581Z,22.67
2022-08-11T23:14:07.562Z,22.63
2022-08-11T23:16:53.383Z,22.69
2022-08-11T23:20:06.334Z,22.57
2022-08-11T23:22:50.763Z,22.52
2022-08-11T23:28:21.480Z,22.42
2022-08-11T23:31:09.130Z,22.38
2022-08-11T23:34:03.160Z,22.20
2022-08-11T23:36:50.330Z,22.34
2022-08-11T23:39:35.026Z,22.40
2022-08-11T23:42:20.304Z,22.41
2022-08-11T23:45:05.501Z,22.43
2022-08-11T23:47:57.165Z,22.31
2022-08-11T23:50:43.346Z,22.36
2022-08-11T23:53:33.318Z,22.44
2022-08-11T23:56:21.801Z,22.39
2022-08-11T23:59:07.381Z,22.32
